sensor_id;sensor_type;location;lat;lon;timestamp;P1;durP1;ratioP1;P2;durP2;ratioP2
40122;SDS011;25832;45.490;4.912;2023-04-15T00:00:36;1.63;;;1.25;;
40122;SDS011;25832;45.490;4.912;2023-04-15T00:03:02;3.75;;;1.20;;
40122;SDS011;25832;45.490;4.912;2023-04-15T00:05:29;1.40;;;0.82;;
40122;SDS011;25832;45.490;4.912;2023-04-15T00:07:55;2.65;;;1.48;;
40122;SDS011;25832;45.490;4.912;2023-04-15T00:10:22;2.90;;;1.25;;
40122;SDS011;25832;45.490;4.912;2023-04-15T00:12:48;2.65;;;1.05;;
40122;SDS011;25832;45.490;4.912;2023-04-15T00:15:15;1.60;;;1.20;;
40122;SDS011;25832;45.490;4.912;2023-04-15T00:17:40;2.03;;;0.95;;
40122;SDS011;25832;45.490;4.912;2023-04-15T00:20:07;5.47;;;1.17;;
40122;SDS011;25832;45.490;4.912;2023-04-15T00:22:33;3.28;;;1.20;;
40122;SDS011;25832;45.490;4.912;2023-04-15T00:24:58;2.50;;;1.10;;
40122;SDS011;25832;45.490;4.912;2023-04-15T00:27:24;3.72;;;1.45;;
40122;SDS011;25832;45.490;4.912;2023-04-15T00:29:50;5.18;;;1.65;;
40122;SDS011;25832;45.490;4.912;2023-04-15T00:32:15;2.45;;;1.30;;
40122;SDS011;25832;45.490;4.912;2023-04-15T00:34:41;1.58;;;1.13;;
40122;SDS011;25832;45.490;4.912;2023-04-15T00:37:08;3.90;;;1.42;;
40122;SDS011;25832;45.490;4.912;2023-04-15T00:39:34;5.03;;;1.67;;
40122;SDS011;25832;45.490;4.912;2023-04-15T00:42:00;4.82;;;1.48;;
40122;SDS011;25832;45.490;4.912;2023-04-15T00:44:27;4.75;;;2.03;;
40122;SDS011;25832;45.490;4.912;2023-04-15T00:46:53;2.53;;;1.38;;
40122;SDS011;25832;45.490;4.912;2023-04-15T00:49:19;3.28;;;1.77;;
40122;SDS011;25832;45.490;4.912;2023-04-15T00:51:44;5.10;;;1.90;;
40122;SDS011;25832;45.490;4.912;2023-04-15T00:54:10;3.47;;;1.42;;
40122;SDS011;25832;45.490;4.912;2023-04-15T00:56:36;3.75;;;1.63;;
40122;SDS011;25832;45.490;4.912;2023-04-15T00:59:05;4.80;;;1.58;;
40122;SDS011;25832;45.490;4.912;2023-04-15T01:01:32;2.75;;;1.35;;
40122;SDS011;25832;45.490;4.912;2023-04-15T01:04:02;2.95;;;1.45;;
40122;SDS011;25832;45.490;4.912;2023-04-15T01:06:29;5.57;;;1.48;;
40122;SDS011;25832;45.490;4.912;2023-04-15T01:08:56;1.38;;;0.98;;
40122;SDS011;25832;45.490;4.912;2023-04-15T01:11:22;2.85;;;1.10;;
40122;SDS011;25832;45.490;4.912;2023-04-15T01:13:49;3.05;;;1.25;;
40122;SDS011;25832;45.490;4.912;2023-04-15T01:16:16;2.45;;;1.70;;
40122;SDS011;25832;45.490;4.912;2023-04-15T01:18:43;3.25;;;1.27;;
40122;SDS011;25832;45.490;4.912;2023-04-15T01:21:09;4.15;;;1.52;;
40122;SDS011;25832;45.490;4.912;2023-04-15T01:23:36;4.80;;;1.58;;
40122;SDS011;25832;45.490;4.912;2023-04-15T01:26:02;1.95;;;1.23;;
40122;SDS011;25832;45.490;4.912;2023-04-15T01:28:29;6.40;;;1.52;;
40122;SDS011;25832;45.490;4.912;2023-04-15T01:31:08;3.75;;;1.70;;
40122;SDS011;25832;45.490;4.912;2023-04-15T01:33:35;3.83;;;1.40;;
40122;SDS011;25832;45.490;4.912;2023-04-15T01:36:02;2.60;;;1.23;;
40122;SDS011;25832;45.490;4.912;2023-04-15T01:38:29;6.65;;;1.60;;
40122;SDS011;25832;45.490;4.912;2023-04-15T01:40:56;2.17;;;1.30;;
40122;SDS011;25832;45.490;4.912;2023-04-15T01:43:23;2.60;;;1.40;;
40122;SDS011;25832;45.490;4.912;2023-04-15T01:45:49;5.93;;;1.73;;
40122;SDS011;25832;45.490;4.912;2023-04-15T01:48:15;6.07;;;2.17;;
40122;SDS011;25832;45.490;4.912;2023-04-15T01:50:41;3.70;;;1.77;;
40122;SDS011;25832;45.490;4.912;2023-04-15T01:53:07;2.17;;;1.60;;
40122;SDS011;25832;45.490;4.912;2023-04-15T01:55:33;5.45;;;1.55;;
40122;SDS011;25832;45.490;4.912;2023-04-15T01:57:59;2.30;;;1.60;;
40122;SDS011;25832;45.490;4.912;2023-04-15T02:00:25;3.38;;;1.52;;
40122;SDS011;25832;45.490;4.912;2023-04-15T02:02:51;2.63;;;1.40;;
40122;SDS011;25832;45.490;4.912;2023-04-15T02:05:17;3.75;;;1.30;;
40122;SDS011;25832;45.490;4.912;2023-04-15T02:07:42;2.42;;;1.33;;
40122;SDS011;25832;45.490;4.912;2023-04-15T02:10:09;4.32;;;2.13;;
40122;SDS011;25832;45.490;4.912;2023-04-15T02:12:35;4.75;;;1.85;;
40122;SDS011;25832;45.490;4.912;2023-04-15T02:15:01;3.00;;;1.55;;
40122;SDS011;25832;45.490;4.912;2023-04-15T02:17:27;7.60;;;2.15;;
40122;SDS011;25832;45.490;4.912;2023-04-15T02:19:54;6.57;;;2.30;;
40122;SDS011;25832;45.490;4.912;2023-04-15T02:22:20;4.05;;;1.30;;
40122;SDS011;25832;45.490;4.912;2023-04-15T02:24:46;4.35;;;1.92;;
40122;SDS011;25832;45.490;4.912;2023-04-15T02:27:15;3.40;;;1.77;;
40122;SDS011;25832;45.490;4.912;2023-04-15T02:29:42;5.55;;;2.03;;
40122;SDS011;25832;45.490;4.912;2023-04-15T02:32:09;4.40;;;1.90;;
40122;SDS011;25832;45.490;4.912;2023-04-15T02:34:36;3.38;;;1.80;;
40122;SDS011;25832;45.490;4.912;2023-04-15T02:37:05;2.63;;;1.83;;
40122;SDS011;25832;45.490;4.912;2023-04-15T02:39:31;3.63;;;1.50;;
40122;SDS011;25832;45.490;4.912;2023-04-15T02:41:57;2.70;;;1.60;;
40122;SDS011;25832;45.490;4.912;2023-04-15T02:44:24;2.08;;;1.35;;
40122;SDS011;25832;45.490;4.912;2023-04-15T02:46:49;4.28;;;1.92;;
40122;SDS011;25832;45.490;4.912;2023-04-15T02:49:16;3.80;;;1.77;;
40122;SDS011;25832;45.490;4.912;2023-04-15T02:51:43;2.53;;;1.48;;
40122;SDS011;25832;45.490;4.912;2023-04-15T02:54:13;2.92;;;1.65;;
40122;SDS011;25832;45.490;4.912;2023-04-15T02:56:41;4.80;;;2.17;;
40122;SDS011;25832;45.490;4.912;2023-04-15T02:59:07;3.67;;;1.75;;
40122;SDS011;25832;45.490;4.912;2023-04-15T03:01:33;4.65;;;2.00;;
40122;SDS011;25832;45.490;4.912;2023-04-15T03:03:58;4.47;;;2.70;;
40122;SDS011;25832;45.490;4.912;2023-04-15T03:06:24;4.97;;;2.50;;
40122;SDS011;25832;45.490;4.912;2023-04-15T03:08:50;8.80;;;3.25;;
40122;SDS011;25832;45.490;4.912;2023-04-15T03:11:16;7.90;;;3.58;;
40122;SDS011;25832;45.490;4.912;2023-04-15T03:13:42;5.32;;;2.90;;
40122;SDS011;25832;45.490;4.912;2023-04-15T03:16:08;7.72;;;3.60;;
40122;SDS011;25832;45.490;4.912;2023-04-15T03:18:34;6.78;;;3.35;;
40122;SDS011;25832;45.490;4.912;2023-04-15T03:21:00;5.18;;;3.20;;
40122;SDS011;25832;45.490;4.912;2023-04-15T03:23:26;7.43;;;3.42;;
40122;SDS011;25832;45.490;4.912;2023-04-15T03:25:52;4.47;;;3.03;;
40122;SDS011;25832;45.490;4.912;2023-04-15T03:28:21;7.70;;;3.50;;
40122;SDS011;25832;45.490;4.912;2023-04-15T03:30:46;6.00;;;3.63;;
40122;SDS011;25832;45.490;4.912;2023-04-15T03:33:12;7.75;;;3.72;;
40122;SDS011;25832;45.490;4.912;2023-04-15T03:35:37;5.32;;;3.95;;
40122;SDS011;25832;45.490;4.912;2023-04-15T03:38:03;6.00;;;3.97;;
40122;SDS011;25832;45.490;4.912;2023-04-15T03:40:29;5.93;;;3.80;;
40122;SDS011;25832;45.490;4.912;2023-04-15T03:42:55;8.07;;;4.68;;
40122;SDS011;25832;45.490;4.912;2023-04-15T03:45:20;5.43;;;4.50;;
40122;SDS011;25832;45.490;4.912;2023-04-15T03:47:46;7.05;;;3.80;;
40122;SDS011;25832;45.490;4.912;2023-04-15T03:50:13;8.13;;;4.72;;
40122;SDS011;25832;45.490;4.912;2023-04-15T03:52:39;6.18;;;3.88;;
40122;SDS011;25832;45.490;4.912;2023-04-15T03:55:05;7.43;;;3.97;;
40122;SDS011;25832;45.490;4.912;2023-04-15T03:57:32;7.15;;;4.45;;
40122;SDS011;25832;45.490;4.912;2023-04-15T04:00:02;7.50;;;4.13;;
40122;SDS011;25832;45.490;4.912;2023-04-15T04:02:28;7.65;;;4.18;;
40122;SDS011;25832;45.490;4.912;2023-04-15T04:04:54;5.55;;;3.65;;
40122;SDS011;25832;45.490;4.912;2023-04-15T04:07:20;5.68;;;3.30;;
40122;SDS011;25832;45.490;4.912;2023-04-15T04:09:48;5.07;;;3.17;;
40122;SDS011;25832;45.490;4.912;2023-04-15T04:12:13;6.47;;;3.28;;
40122;SDS011;25832;45.490;4.912;2023-04-15T04:14:39;4.85;;;3.38;;
40122;SDS011;25832;45.490;4.912;2023-04-15T04:17:05;5.80;;;3.30;;
40122;SDS011;25832;45.490;4.912;2023-04-15T04:19:31;4.63;;;2.78;;
40122;SDS011;25832;45.490;4.912;2023-04-15T04:21:56;6.93;;;3.80;;
40122;SDS011;25832;45.490;4.912;2023-04-15T04:24:22;5.35;;;3.38;;
40122;SDS011;25832;45.490;4.912;2023-04-15T04:26:48;4.88;;;3.10;;
40122;SDS011;25832;45.490;4.912;2023-04-15T04:29:13;6.00;;;3.70;;
40122;SDS011;25832;45.490;4.912;2023-04-15T04:31:39;5.50;;;3.00;;
40122;SDS011;25832;45.490;4.912;2023-04-15T04:34:05;6.25;;;3.25;;
40122;SDS011;25832;45.490;4.912;2023-04-15T04:36:31;6.68;;;2.75;;
40122;SDS011;25832;45.490;4.912;2023-04-15T04:38:57;6.80;;;2.80;;
40122;SDS011;25832;45.490;4.912;2023-04-15T04:41:23;5.13;;;2.60;;
40122;SDS011;25832;45.490;4.912;2023-04-15T04:43:48;5.53;;;2.47;;
40122;SDS011;25832;45.490;4.912;2023-04-15T04:46:14;5.97;;;2.00;;
40122;SDS011;25832;45.490;4.912;2023-04-15T04:48:39;7.25;;;2.17;;
40122;SDS011;25832;45.490;4.912;2023-04-15T04:51:05;6.80;;;2.20;;
40122;SDS011;25832;45.490;4.912;2023-04-15T04:53:32;4.05;;;2.03;;
40122;SDS011;25832;45.490;4.912;2023-04-15T04:55:57;6.45;;;2.33;;
40122;SDS011;25832;45.490;4.912;2023-04-15T04:58:23;3.92;;;2.05;;
40122;SDS011;25832;45.490;4.912;2023-04-15T05:00:49;4.78;;;2.20;;
40122;SDS011;25832;45.490;4.912;2023-04-15T05:03:15;3.53;;;1.92;;
40122;SDS011;25832;45.490;4.912;2023-04-15T05:05:41;4.65;;;2.03;;
40122;SDS011;25832;45.490;4.912;2023-04-15T05:08:07;3.47;;;1.95;;
40122;SDS011;25832;45.490;4.912;2023-04-15T05:10:33;5.15;;;1.80;;
40122;SDS011;25832;45.490;4.912;2023-04-15T05:12:58;3.17;;;1.88;;
40122;SDS011;25832;45.490;4.912;2023-04-15T05:15:24;4.53;;;1.98;;
40122;SDS011;25832;45.490;4.912;2023-04-15T05:17:50;3.08;;;2.25;;
40122;SDS011;25832;45.490;4.912;2023-04-15T05:20:15;6.75;;;2.25;;
40122;SDS011;25832;45.490;4.912;2023-04-15T05:22:41;6.60;;;2.17;;
40122;SDS011;25832;45.490;4.912;2023-04-15T05:25:07;6.63;;;2.63;;
40122;SDS011;25832;45.490;4.912;2023-04-15T05:27:33;6.95;;;2.83;;
40122;SDS011;25832;45.490;4.912;2023-04-15T05:29:59;4.90;;;3.03;;
40122;SDS011;25832;45.490;4.912;2023-04-15T05:32:25;5.95;;;3.50;;
40122;SDS011;25832;45.490;4.912;2023-04-15T05:34:51;6.68;;;4.05;;
40122;SDS011;25832;45.490;4.912;2023-04-15T05:37:16;7.18;;;4.28;;
40122;SDS011;25832;45.490;4.912;2023-04-15T05:39:44;5.75;;;3.97;;
40122;SDS011;25832;45.490;4.912;2023-04-15T05:42:10;5.90;;;3.42;;
40122;SDS011;25832;45.490;4.912;2023-04-15T05:44:36;5.95;;;3.65;;
40122;SDS011;25832;45.490;4.912;2023-04-15T05:47:02;8.32;;;3.88;;
40122;SDS011;25832;45.490;4.912;2023-04-15T05:49:28;5.15;;;3.60;;
40122;SDS011;25832;45.490;4.912;2023-04-15T05:51:53;5.78;;;3.47;;
40122;SDS011;25832;45.490;4.912;2023-04-15T05:54:19;5.47;;;2.90;;
40122;SDS011;25832;45.490;4.912;2023-04-15T05:56:46;4.40;;;2.80;;
40122;SDS011;25832;45.490;4.912;2023-04-15T05:59:12;3.30;;;2.25;;
40122;SDS011;25832;45.490;4.912;2023-04-15T06:01:37;3.90;;;2.00;;
40122;SDS011;25832;45.490;4.912;2023-04-15T06:04:04;3.88;;;2.10;;
40122;SDS011;25832;45.490;4.912;2023-04-15T06:06:29;5.95;;;1.77;;
40122;SDS011;25832;45.490;4.912;2023-04-15T06:08:56;5.15;;;2.67;;
40122;SDS011;25832;45.490;4.912;2023-04-15T06:11:22;6.75;;;2.42;;
40122;SDS011;25832;45.490;4.912;2023-04-15T06:13:48;4.45;;;2.00;;
40122;SDS011;25832;45.490;4.912;2023-04-15T06:16:13;5.97;;;2.72;;
40122;SDS011;25832;45.490;4.912;2023-04-15T06:18:39;2.88;;;1.80;;
40122;SDS011;25832;45.490;4.912;2023-04-15T06:21:05;3.10;;;1.58;;
40122;SDS011;25832;45.490;4.912;2023-04-15T06:23:33;5.55;;;2.63;;
40122;SDS011;25832;45.490;4.912;2023-04-15T06:25:59;10.57;;;5.95;;
40122;SDS011;25832;45.490;4.912;2023-04-15T06:28:25;11.55;;;4.75;;
40122;SDS011;25832;45.490;4.912;2023-04-15T06:30:51;6.68;;;4.13;;
40122;SDS011;25832;45.490;4.912;2023-04-15T06:33:17;6.53;;;3.95;;
40122;SDS011;25832;45.490;4.912;2023-04-15T06:35:43;3.70;;;2.33;;
40122;SDS011;25832;45.490;4.912;2023-04-15T06:38:09;7.65;;;3.13;;
40122;SDS011;25832;45.490;4.912;2023-04-15T06:40:35;6.43;;;2.13;;
40122;SDS011;25832;45.490;4.912;2023-04-15T06:43:00;2.72;;;1.38;;
40122;SDS011;25832;45.490;4.912;2023-04-15T06:45:26;3.35;;;1.10;;
40122;SDS011;25832;45.490;4.912;2023-04-15T06:47:52;0.98;;;0.45;;
40122;SDS011;25832;45.490;4.912;2023-04-15T06:50:17;1.83;;;0.88;;
40122;SDS011;25832;45.490;4.912;2023-04-15T06:52:43;2.60;;;0.98;;
40122;SDS011;25832;45.490;4.912;2023-04-15T06:55:09;1.08;;;0.60;;
40122;SDS011;25832;45.490;4.912;2023-04-15T06:57:34;2.08;;;0.82;;
40122;SDS011;25832;45.490;4.912;2023-04-15T07:00:00;1.38;;;0.40;;
40122;SDS011;25832;45.490;4.912;2023-04-15T07:02:26;2.08;;;0.70;;
40122;SDS011;25832;45.490;4.912;2023-04-15T07:04:52;2.75;;;0.50;;
40122;SDS011;25832;45.490;4.912;2023-04-15T07:07:18;2.78;;;0.80;;
40122;SDS011;25832;45.490;4.912;2023-04-15T07:09:44;0.40;;;0.40;;
40122;SDS011;25832;45.490;4.912;2023-04-15T07:12:10;0.75;;;0.40;;
40122;SDS011;25832;45.490;4.912;2023-04-15T07:14:36;1.58;;;0.60;;
40122;SDS011;25832;45.490;4.912;2023-04-15T07:17:01;0.93;;;0.60;;
40122;SDS011;25832;45.490;4.912;2023-04-15T07:19:27;1.38;;;0.35;;
40122;SDS011;25832;45.490;4.912;2023-04-15T07:21:53;0.47;;;0.32;;
40122;SDS011;25832;45.490;4.912;2023-04-15T07:24:18;1.98;;;0.50;;
40122;SDS011;25832;45.490;4.912;2023-04-15T07:26:44;2.17;;;0.60;;
40122;SDS011;25832;45.490;4.912;2023-04-15T07:29:10;3.28;;;0.82;;
40122;SDS011;25832;45.490;4.912;2023-04-15T07:31:36;2.05;;;0.50;;
40122;SDS011;25832;45.490;4.912;2023-04-15T07:34:05;1.80;;;0.73;;
40122;SDS011;25832;45.490;4.912;2023-04-15T07:36:31;0.75;;;0.60;;
40122;SDS011;25832;45.490;4.912;2023-04-15T07:38:57;2.60;;;0.38;;
40122;SDS011;25832;45.490;4.912;2023-04-15T07:41:23;1.90;;;1.13;;
40122;SDS011;25832;45.490;4.912;2023-04-15T07:43:49;2.70;;;0.50;;
40122;SDS011;25832;45.490;4.912;2023-04-15T07:46:15;3.65;;;1.02;;
40122;SDS011;25832;45.490;4.912;2023-04-15T07:48:41;0.38;;;0.28;;
40122;SDS011;25832;45.490;4.912;2023-04-15T07:51:07;0.70;;;0.40;;
40122;SDS011;25832;45.490;4.912;2023-04-15T07:53:34;2.83;;;0.60;;
40122;SDS011;25832;45.490;4.912;2023-04-15T07:56:00;5.18;;;0.80;;
40122;SDS011;25832;45.490;4.912;2023-04-15T07:58:26;1.35;;;0.63;;
40122;SDS011;25832;45.490;4.912;2023-04-15T08:00:51;0.98;;;0.60;;
40122;SDS011;25832;45.490;4.912;2023-04-15T08:03:19;0.50;;;0.50;;
40122;SDS011;25832;45.490;4.912;2023-04-15T08:05:46;0.55;;;0.20;;
40122;SDS011;25832;45.490;4.912;2023-04-15T08:08:12;0.35;;;0.25;;
40122;SDS011;25832;45.490;4.912;2023-04-15T08:10:38;1.13;;;0.40;;
40122;SDS011;25832;45.490;4.912;2023-04-15T08:13:03;0.75;;;0.30;;
40122;SDS011;25832;45.490;4.912;2023-04-15T08:15:29;0.32;;;0.30;;
40122;SDS011;25832;45.490;4.912;2023-04-15T08:17:56;0.75;;;0.50;;
40122;SDS011;25832;45.490;4.912;2023-04-15T08:20:24;1.33;;;0.50;;
40122;SDS011;25832;45.490;4.912;2023-04-15T08:22:50;2.22;;;0.50;;
40122;SDS011;25832;45.490;4.912;2023-04-15T08:25:16;0.82;;;0.60;;
40122;SDS011;25832;45.490;4.912;2023-04-15T08:27:43;0.90;;;0.38;;
40122;SDS011;25832;45.490;4.912;2023-04-15T08:30:10;1.08;;;0.50;;
40122;SDS011;25832;45.490;4.912;2023-04-15T08:32:36;0.88;;;0.32;;
40122;SDS011;25832;45.490;4.912;2023-04-15T08:35:02;0.63;;;0.40;;
40122;SDS011;25832;45.490;4.912;2023-04-15T08:37:27;6.88;;;1.10;;
40122;SDS011;25832;45.490;4.912;2023-04-15T08:39:53;2.45;;;1.67;;
40122;SDS011;25832;45.490;4.912;2023-04-15T08:42:22;2.65;;;0.75;;
40122;SDS011;25832;45.490;4.912;2023-04-15T08:44:52;2.28;;;1.27;;
40122;SDS011;25832;45.490;4.912;2023-04-15T08:47:20;1.02;;;0.75;;
40122;SDS011;25832;45.490;4.912;2023-04-15T08:49:46;2.42;;;1.25;;
40122;SDS011;25832;45.490;4.912;2023-04-15T08:52:17;2.40;;;1.80;;
40122;SDS011;25832;45.490;4.912;2023-04-15T08:54:44;0.70;;;0.50;;
40122;SDS011;25832;45.490;4.912;2023-04-15T08:57:10;2.40;;;1.48;;
40122;SDS011;25832;45.490;4.912;2023-04-15T08:59:37;8.38;;;5.63;;
40122;SDS011;25832;45.490;4.912;2023-04-15T09:02:03;3.65;;;1.85;;
40122;SDS011;25832;45.490;4.912;2023-04-15T09:04:29;2.20;;;0.63;;
40122;SDS011;25832;45.490;4.912;2023-04-15T09:06:56;2.72;;;1.23;;
40122;SDS011;25832;45.490;4.912;2023-04-15T09:09:22;1.92;;;1.38;;
40122;SDS011;25832;45.490;4.912;2023-04-15T09:11:48;0.82;;;0.50;;
40122;SDS011;25832;45.490;4.912;2023-04-15T09:14:15;2.05;;;0.50;;
40122;SDS011;25832;45.490;4.912;2023-04-15T09:16:57;1.90;;;1.65;;
40122;SDS011;25832;45.490;4.912;2023-04-15T09:19:27;0.63;;;0.55;;
40122;SDS011;25832;45.490;4.912;2023-04-15T09:21:53;0.40;;;0.25;;
40122;SDS011;25832;45.490;4.912;2023-04-15T09:24:23;1.08;;;0.80;;
40122;SDS011;25832;45.490;4.912;2023-04-15T09:26:51;1.23;;;1.02;;
40122;SDS011;25832;45.490;4.912;2023-04-15T09:29:23;2.17;;;1.20;;
40122;SDS011;25832;45.490;4.912;2023-04-15T09:31:50;2.70;;;2.00;;
40122;SDS011;25832;45.490;4.912;2023-04-15T09:34:16;1.58;;;0.70;;
40122;SDS011;25832;45.490;4.912;2023-04-15T09:36:52;0.95;;;0.50;;
40122;SDS011;25832;45.490;4.912;2023-04-15T09:39:20;1.13;;;0.98;;
40122;SDS011;25832;45.490;4.912;2023-04-15T09:41:45;0.70;;;0.35;;
40122;SDS011;25832;45.490;4.912;2023-04-15T09:44:21;1.30;;;0.98;;
40122;SDS011;25832;45.490;4.912;2023-04-15T09:46:47;0.95;;;0.50;;
40122;SDS011;25832;45.490;4.912;2023-04-15T09:49:13;0.93;;;0.45;;
40122;SDS011;25832;45.490;4.912;2023-04-15T09:51:40;0.15;;;0.15;;
40122;SDS011;25832;45.490;4.912;2023-04-15T09:54:05;0.30;;;0.30;;
40122;SDS011;25832;45.490;4.912;2023-04-15T09:56:34;2.05;;;0.43;;
40122;SDS011;25832;45.490;4.912;2023-04-15T09:59:02;1.02;;;0.40;;
40122;SDS011;25832;45.490;4.912;2023-04-15T10:01:29;0.60;;;0.32;;
40122;SDS011;25832;45.490;4.912;2023-04-15T10:03:56;0.20;;;0.20;;
40122;SDS011;25832;45.490;4.912;2023-04-15T10:06:25;1.35;;;0.57;;
40122;SDS011;25832;45.490;4.912;2023-04-15T10:08:51;0.65;;;0.65;;
40122;SDS011;25832;45.490;4.912;2023-04-15T10:11:18;0.57;;;0.45;;
40122;SDS011;25832;45.490;4.912;2023-04-15T10:13:48;1.17;;;0.43;;
40122;SDS011;25832;45.490;4.912;2023-04-15T10:16:15;0.95;;;0.50;;
40122;SDS011;25832;45.490;4.912;2023-04-15T10:18:43;1.30;;;0.60;;
40122;SDS011;25832;45.490;4.912;2023-04-15T10:21:17;0.90;;;0.55;;
40122;SDS011;25832;45.490;4.912;2023-04-15T10:23:44;0.98;;;0.50;;
40122;SDS011;25832;45.490;4.912;2023-04-15T10:26:11;0.32;;;0.30;;
40122;SDS011;25832;45.490;4.912;2023-04-15T10:28:39;1.20;;;0.30;;
40122;SDS011;25832;45.490;4.912;2023-04-15T10:31:05;0.60;;;0.50;;
40122;SDS011;25832;45.490;4.912;2023-04-15T10:33:31;2.85;;;0.80;;
40122;SDS011;25832;45.490;4.912;2023-04-15T10:35:58;3.33;;;0.40;;
40122;SDS011;25832;45.490;4.912;2023-04-15T10:43:52;0.93;;;0.60;;
40122;SDS011;25832;45.490;4.912;2023-04-15T10:46:22;0.55;;;0.30;;
40122;SDS011;25832;45.490;4.912;2023-04-15T10:48:50;0.95;;;0.52;;
40122;SDS011;25832;45.490;4.912;2023-04-15T10:51:25;1.38;;;0.40;;
40122;SDS011;25832;45.490;4.912;2023-04-15T10:53:56;2.63;;;0.63;;
40122;SDS011;25832;45.490;4.912;2023-04-15T10:56:27;2.78;;;0.43;;
40122;SDS011;25832;45.490;4.912;2023-04-15T10:58:54;0.88;;;0.60;;
40122;SDS011;25832;45.490;4.912;2023-04-15T11:01:19;1.35;;;0.63;;
40122;SDS011;25832;45.490;4.912;2023-04-15T11:03:49;2.08;;;0.70;;
40122;SDS011;25832;45.490;4.912;2023-04-15T11:06:15;1.35;;;0.80;;
40122;SDS011;25832;45.490;4.912;2023-04-15T11:11:19;1.75;;;0.88;;
40122;SDS011;25832;45.490;4.912;2023-04-15T11:13:49;0.70;;;0.38;;
40122;SDS011;25832;45.490;4.912;2023-04-15T11:16:16;2.47;;;1.02;;
40122;SDS011;25832;45.490;4.912;2023-04-15T11:18:42;5.10;;;1.45;;
40122;SDS011;25832;45.490;4.912;2023-04-15T11:21:18;2.80;;;1.20;;
40122;SDS011;25832;45.490;4.912;2023-04-15T11:23:48;1.20;;;0.87;;
40122;SDS011;25832;45.490;4.912;2023-04-15T11:26:15;3.40;;;2.10;;
40122;SDS011;25832;45.490;4.912;2023-04-15T11:28:42;1.58;;;0.85;;
40122;SDS011;25832;45.490;4.912;2023-04-15T11:31:10;0.75;;;0.68;;
40122;SDS011;25832;45.490;4.912;2023-04-15T11:33:44;3.28;;;1.90;;
40122;SDS011;25832;45.490;4.912;2023-04-15T11:36:11;2.00;;;0.98;;
40122;SDS011;25832;45.490;4.912;2023-04-15T11:38:40;1.65;;;0.73;;
40122;SDS011;25832;45.490;4.912;2023-04-15T11:41:07;1.42;;;1.00;;
40122;SDS011;25832;45.490;4.912;2023-04-15T11:43:32;3.63;;;1.85;;
40122;SDS011;25832;45.490;4.912;2023-04-15T11:46:00;2.50;;;1.42;;
40122;SDS011;25832;45.490;4.912;2023-04-15T11:48:27;10.23;;;5.13;;
40122;SDS011;25832;45.490;4.912;2023-04-15T11:50:58;3.28;;;1.88;;
40122;SDS011;25832;45.490;4.912;2023-04-15T11:56:17;0.32;;;0.20;;
40122;SDS011;25832;45.490;4.912;2023-04-15T11:58:53;1.60;;;1.50;;
40122;SDS011;25832;45.490;4.912;2023-04-15T12:01:33;0.65;;;0.45;;
40122;SDS011;25832;45.490;4.912;2023-04-15T12:04:00;2.17;;;0.50;;
40122;SDS011;25832;45.490;4.912;2023-04-15T12:06:33;0.98;;;0.40;;
40122;SDS011;25832;45.490;4.912;2023-04-15T12:09:13;1.17;;;0.40;;
40122;SDS011;25832;45.490;4.912;2023-04-15T12:11:58;1.65;;;0.30;;
40122;SDS011;25832;45.490;4.912;2023-04-15T12:16:57;0.52;;;0.40;;
40122;SDS011;25832;45.490;4.912;2023-04-15T12:19:34;1.48;;;0.10;;
40122;SDS011;25832;45.490;4.912;2023-04-15T12:22:01;0.35;;;0.20;;
40122;SDS011;25832;45.490;4.912;2023-04-15T12:24:32;0.68;;;0.52;;
40122;SDS011;25832;45.490;4.912;2023-04-15T12:27:03;0.80;;;0.50;;
40122;SDS011;25832;45.490;4.912;2023-04-15T12:29:33;0.35;;;0.17;;
40122;SDS011;25832;45.490;4.912;2023-04-15T12:32:04;0.47;;;0.38;;
40122;SDS011;25832;45.490;4.912;2023-04-15T12:34:40;0.20;;;0.20;;
40122;SDS011;25832;45.490;4.912;2023-04-15T12:37:13;0.80;;;0.50;;
40122;SDS011;25832;45.490;4.912;2023-04-15T12:39:43;0.63;;;0.30;;
40122;SDS011;25832;45.490;4.912;2023-04-15T12:42:10;3.00;;;0.20;;
40122;SDS011;25832;45.490;4.912;2023-04-15T12:44:36;0.70;;;0.32;;
40122;SDS011;25832;45.490;4.912;2023-04-15T12:47:03;0.30;;;0.20;;
40122;SDS011;25832;45.490;4.912;2023-04-15T12:49:29;0.35;;;0.32;;
40122;SDS011;25832;45.490;4.912;2023-04-15T12:51:57;0.25;;;0.25;;
40122;SDS011;25832;45.490;4.912;2023-04-15T12:54:24;1.15;;;0.50;;
40122;SDS011;25832;45.490;4.912;2023-04-15T12:56:51;0.60;;;0.60;;
40122;SDS011;25832;45.490;4.912;2023-04-15T12:59:18;0.82;;;0.70;;
40122;SDS011;25832;45.490;4.912;2023-04-15T13:01:44;0.40;;;0.40;;
40122;SDS011;25832;45.490;4.912;2023-04-15T13:04:11;0.22;;;0.20;;
40122;SDS011;25832;45.490;4.912;2023-04-15T13:06:37;0.55;;;0.55;;
40122;SDS011;25832;45.490;4.912;2023-04-15T13:09:02;0.77;;;0.47;;
40122;SDS011;25832;45.490;4.912;2023-04-15T13:11:29;0.50;;;0.50;;
40122;SDS011;25832;45.490;4.912;2023-04-15T13:13:59;0.80;;;0.60;;
40122;SDS011;25832;45.490;4.912;2023-04-15T13:16:26;1.42;;;0.77;;
40122;SDS011;25832;45.490;4.912;2023-04-15T13:18:52;1.30;;;0.98;;
40122;SDS011;25832;45.490;4.912;2023-04-15T13:21:18;0.90;;;0.57;;
40122;SDS011;25832;45.490;4.912;2023-04-15T13:23:44;1.30;;;0.75;;
40122;SDS011;25832;45.490;4.912;2023-04-15T13:26:09;1.85;;;0.55;;
40122;SDS011;25832;45.490;4.912;2023-04-15T13:28:35;0.47;;;0.40;;
40122;SDS011;25832;45.490;4.912;2023-04-15T13:31:01;4.90;;;0.22;;
40122;SDS011;25832;45.490;4.912;2023-04-15T13:33:27;0.50;;;0.50;;
40122;SDS011;25832;45.490;4.912;2023-04-15T13:35:53;0.85;;;0.57;;
40122;SDS011;25832;45.490;4.912;2023-04-15T13:38:18;1.90;;;0.50;;
40122;SDS011;25832;45.490;4.912;2023-04-15T13:40:44;3.08;;;2.28;;
40122;SDS011;25832;45.490;4.912;2023-04-15T13:43:10;1.20;;;0.77;;
40122;SDS011;25832;45.490;4.912;2023-04-15T13:45:36;1.85;;;1.27;;
40122;SDS011;25832;45.490;4.912;2023-04-15T13:48:02;2.80;;;1.77;;
40122;SDS011;25832;45.490;4.912;2023-04-15T13:50:28;1.85;;;0.77;;
40122;SDS011;25832;45.490;4.912;2023-04-15T13:52:53;2.00;;;1.02;;
40122;SDS011;25832;45.490;4.912;2023-04-15T13:55:19;1.23;;;0.68;;
40122;SDS011;25832;45.490;4.912;2023-04-15T13:57:45;1.00;;;0.38;;
40122;SDS011;25832;45.490;4.912;2023-04-15T14:00:11;0.63;;;0.47;;
40122;SDS011;25832;45.490;4.912;2023-04-15T14:02:37;0.57;;;0.50;;
40122;SDS011;25832;45.490;4.912;2023-04-15T14:05:04;2.65;;;1.17;;
40122;SDS011;25832;45.490;4.912;2023-04-15T14:07:30;1.73;;;0.50;;
40122;SDS011;25832;45.490;4.912;2023-04-15T14:09:56;2.55;;;1.55;;
40122;SDS011;25832;45.490;4.912;2023-04-15T14:12:22;2.13;;;1.63;;
40122;SDS011;25832;45.490;4.912;2023-04-15T14:14:47;1.80;;;1.52;;
40122;SDS011;25832;45.490;4.912;2023-04-15T14:17:13;2.45;;;1.60;;
40122;SDS011;25832;45.490;4.912;2023-04-15T14:19:39;3.80;;;0.60;;
40122;SDS011;25832;45.490;4.912;2023-04-15T14:22:04;1.33;;;0.95;;
40122;SDS011;25832;45.490;4.912;2023-04-15T14:24:30;2.30;;;0.65;;
40122;SDS011;25832;45.490;4.912;2023-04-15T14:26:56;4.22;;;0.80;;
40122;SDS011;25832;45.490;4.912;2023-04-15T14:29:22;2.45;;;1.30;;
40122;SDS011;25832;45.490;4.912;2023-04-15T14:31:48;1.35;;;0.40;;
40122;SDS011;25832;45.490;4.912;2023-04-15T14:34:14;1.52;;;1.02;;
40122;SDS011;25832;45.490;4.912;2023-04-15T14:36:40;1.88;;;1.00;;
40122;SDS011;25832;45.490;4.912;2023-04-15T14:39:06;1.42;;;1.00;;
40122;SDS011;25832;45.490;4.912;2023-04-15T14:41:32;4.95;;;1.90;;
40122;SDS011;25832;45.490;4.912;2023-04-15T14:43:59;4.18;;;1.40;;
40122;SDS011;25832;45.490;4.912;2023-04-15T14:46:25;2.35;;;1.20;;
40122;SDS011;25832;45.490;4.912;2023-04-15T14:48:50;0.95;;;0.68;;
40122;SDS011;25832;45.490;4.912;2023-04-15T14:51:16;1.45;;;1.20;;
40122;SDS011;25832;45.490;4.912;2023-04-15T14:53:44;1.27;;;0.88;;
40122;SDS011;25832;45.490;4.912;2023-04-15T14:56:10;1.58;;;0.98;;
40122;SDS011;25832;45.490;4.912;2023-04-15T14:58:36;2.40;;;0.80;;